sensor_id;sensor_type;location;lat;lon;timestamp;P1;durP1;ratioP1;P2;durP2;ratioP2
64887;SDS011;51386;53.082;8.816;2023-07-13T00:01:05;5.97;;;3.80;;
64887;SDS011;51386;53.082;8.816;2023-07-13T00:03:32;3.47;;;3.13;;
64887;SDS011;51386;53.082;8.816;2023-07-13T00:06:01;3.47;;;3.17;;
64887;SDS011;51386;53.082;8.816;2023-07-13T00:08:30;4.93;;;3.73;;
64887;SDS011;51386;53.082;8.816;2023-07-13T00:10:59;4.53;;;3.63;;
64887;SDS011;51386;53.082;8.816;2023-07-13T00:13:26;5.70;;;4.27;;
64887;SDS011;51386;53.082;8.816;2023-07-13T00:15:56;3.60;;;3.30;;
64887;SDS011;51386;53.082;8.816;2023-07-13T00:18:24;7.23;;;4.20;;
64887;SDS011;51386;53.082;8.816;2023-07-13T00:20:51;4.20;;;3.40;;
64887;SDS011;51386;53.082;8.816;2023-07-13T00:23:18;5.47;;;4.27;;
64887;SDS011;51386;53.082;8.816;2023-07-13T00:25:45;6.17;;;4.03;;
64887;SDS011;51386;53.082;8.816;2023-07-13T00:28:12;5.50;;;3.43;;
64887;SDS011;51386;53.082;8.816;2023-07-13T00:30:40;4.10;;;3.50;;
64887;SDS011;51386;53.082;8.816;2023-07-13T00:33:08;5.20;;;3.87;;
64887;SDS011;51386;53.082;8.816;2023-07-13T00:35:43;5.83;;;3.63;;
64887;SDS011;51386;53.082;8.816;2023-07-13T00:38:11;4.70;;;4.20;;
64887;SDS011;51386;53.082;8.816;2023-07-13T00:40:38;10.33;;;4.10;;
64887;SDS011;51386;53.082;8.816;2023-07-13T00:43:08;4.53;;;3.63;;
64887;SDS011;51386;53.082;8.816;2023-07-13T00:48:47;6.13;;;3.97;;
64887;SDS011;51386;53.082;8.816;2023-07-13T00:51:17;4.60;;;3.90;;
64887;SDS011;51386;53.082;8.816;2023-07-13T00:53:52;4.47;;;4.07;;
64887;SDS011;51386;53.082;8.816;2023-07-13T00:56:24;5.70;;;4.23;;
64887;SDS011;51386;53.082;8.816;2023-07-13T00:58:52;8.00;;;4.20;;
64887;SDS011;51386;53.082;8.816;2023-07-13T01:01:20;6.17;;;3.67;;
64887;SDS011;51386;53.082;8.816;2023-07-13T01:03:49;5.67;;;3.93;;
64887;SDS011;51386;53.082;8.816;2023-07-13T01:06:16;5.43;;;4.20;;
64887;SDS011;51386;53.082;8.816;2023-07-13T01:08:44;5.53;;;4.30;;
64887;SDS011;51386;53.082;8.816;2023-07-13T01:11:10;4.47;;;4.07;;
64887;SDS011;51386;53.082;8.816;2023-07-13T01:13:37;5.03;;;4.40;;
64887;SDS011;51386;53.082;8.816;2023-07-13T01:16:05;5.77;;;4.43;;
64887;SDS011;51386;53.082;8.816;2023-07-13T01:18:49;4.70;;;4.30;;
64887;SDS011;51386;53.082;8.816;2023-07-13T01:21:17;5.17;;;4.50;;
64887;SDS011;51386;53.082;8.816;2023-07-13T01:23:45;7.77;;;4.27;;
64887;SDS011;51386;53.082;8.816;2023-07-13T01:26:12;4.37;;;3.90;;
64887;SDS011;51386;53.082;8.816;2023-07-13T01:28:39;9.10;;;5.13;;
64887;SDS011;51386;53.082;8.816;2023-07-13T01:31:06;5.47;;;4.20;;
64887;SDS011;51386;53.082;8.816;2023-07-13T01:33:36;5.63;;;4.40;;
64887;SDS011;51386;53.082;8.816;2023-07-13T01:36:04;7.27;;;4.80;;
64887;SDS011;51386;53.082;8.816;2023-07-13T01:38:33;6.30;;;5.10;;
64887;SDS011;51386;53.082;8.816;2023-07-13T01:41:01;6.03;;;4.20;;
64887;SDS011;51386;53.082;8.816;2023-07-13T01:43:29;5.53;;;4.20;;
64887;SDS011;51386;53.082;8.816;2023-07-13T01:45:56;4.67;;;3.93;;
64887;SDS011;51386;53.082;8.816;2023-07-13T01:48:43;6.17;;;4.30;;
64887;SDS011;51386;53.082;8.816;2023-07-13T01:51:10;4.83;;;3.97;;
64887;SDS011;51386;53.082;8.816;2023-07-13T01:53:38;6.47;;;4.43;;
64887;SDS011;51386;53.082;8.816;2023-07-13T01:56:05;4.53;;;4.10;;
64887;SDS011;51386;53.082;8.816;2023-07-13T01:58:32;4.87;;;3.90;;
64887;SDS011;51386;53.082;8.816;2023-07-13T02:00:59;4.67;;;3.67;;
64887;SDS011;51386;53.082;8.816;2023-07-13T02:03:26;6.33;;;4.80;;
64887;SDS011;51386;53.082;8.816;2023-07-13T02:05:53;6.53;;;4.13;;
64887;SDS011;51386;53.082;8.816;2023-07-13T02:08:20;6.23;;;3.70;;
64887;SDS011;51386;53.082;8.816;2023-07-13T02:10:48;6.90;;;3.80;;
64887;SDS011;51386;53.082;8.816;2023-07-13T02:13:15;6.00;;;2.87;;
64887;SDS011;51386;53.082;8.816;2023-07-13T02:15:42;6.77;;;3.73;;
64887;SDS011;51386;53.082;8.816;2023-07-13T02:18:09;5.73;;;4.00;;
64887;SDS011;51386;53.082;8.816;2023-07-13T02:20:36;6.47;;;4.40;;
64887;SDS011;51386;53.082;8.816;2023-07-13T02:23:03;5.90;;;4.23;;
64887;SDS011;51386;53.082;8.816;2023-07-13T02:25:33;6.67;;;4.63;;
64887;SDS011;51386;53.082;8.816;2023-07-13T02:28:01;7.70;;;4.07;;
64887;SDS011;51386;53.082;8.816;2023-07-13T02:30:29;5.77;;;3.90;;
64887;SDS011;51386;53.082;8.816;2023-07-13T02:32:57;6.40;;;3.67;;
64887;SDS011;51386;53.082;8.816;2023-07-13T02:35:24;6.70;;;4.63;;
64887;SDS011;51386;53.082;8.816;2023-07-13T02:37:51;7.40;;;5.20;;
64887;SDS011;51386;53.082;8.816;2023-07-13T02:40:18;6.63;;;4.80;;
64887;SDS011;51386;53.082;8.816;2023-07-13T02:42:46;8.27;;;4.93;;
64887;SDS011;51386;53.082;8.816;2023-07-13T02:45:14;5.53;;;4.63;;
64887;SDS011;51386;53.082;8.816;2023-07-13T02:47:42;8.73;;;5.00;;
64887;SDS011;51386;53.082;8.816;2023-07-13T02:50:09;9.83;;;4.83;;
64887;SDS011;51386;53.082;8.816;2023-07-13T02:52:36;8.87;;;5.03;;
64887;SDS011;51386;53.082;8.816;2023-07-13T02:55:03;8.47;;;4.57;;
64887;SDS011;51386;53.082;8.816;2023-07-13T02:57:30;5.40;;;3.97;;
64887;SDS011;51386;53.082;8.816;2023-07-13T02:59:59;7.50;;;4.10;;
64887;SDS011;51386;53.082;8.816;2023-07-13T03:02:27;9.97;;;4.53;;
64887;SDS011;51386;53.082;8.816;2023-07-13T03:04:54;8.03;;;4.40;;
64887;SDS011;51386;53.082;8.816;2023-07-13T03:07:21;9.87;;;3.83;;
64887;SDS011;51386;53.082;8.816;2023-07-13T03:09:48;8.23;;;4.10;;
64887;SDS011;51386;53.082;8.816;2023-07-13T03:12:20;9.60;;;4.40;;
64887;SDS011;51386;53.082;8.816;2023-07-13T03:14:47;7.37;;;4.67;;
64887;SDS011;51386;53.082;8.816;2023-07-13T03:17:14;6.80;;;3.97;;
64887;SDS011;51386;53.082;8.816;2023-07-13T03:19:42;6.40;;;4.13;;
64887;SDS011;51386;53.082;8.816;2023-07-13T03:22:10;8.90;;;4.13;;
64887;SDS011;51386;53.082;8.816;2023-07-13T03:24:37;9.30;;;3.77;;
64887;SDS011;51386;53.082;8.816;2023-07-13T03:27:06;8.40;;;3.60;;
64887;SDS011;51386;53.082;8.816;2023-07-13T03:29:34;8.27;;;3.67;;
64887;SDS011;51386;53.082;8.816;2023-07-13T03:32:01;5.03;;;3.37;;
64887;SDS011;51386;53.082;8.816;2023-07-13T03:34:28;9.67;;;3.97;;
64887;SDS011;51386;53.082;8.816;2023-07-13T03:36:56;9.50;;;3.77;;
64887;SDS011;51386;53.082;8.816;2023-07-13T03:39:23;9.03;;;3.50;;
64887;SDS011;51386;53.082;8.816;2023-07-13T03:41:50;7.60;;;3.20;;
64887;SDS011;51386;53.082;8.816;2023-07-13T03:44:18;5.23;;;3.10;;
64887;SDS011;51386;53.082;8.816;2023-07-13T03:46:45;4.63;;;3.17;;
64887;SDS011;51386;53.082;8.816;2023-07-13T03:49:12;4.10;;;3.00;;
64887;SDS011;51386;53.082;8.816;2023-07-13T03:51:39;8.37;;;3.40;;
64887;SDS011;51386;53.082;8.816;2023-07-13T03:54:07;5.70;;;2.80;;
64887;SDS011;51386;53.082;8.816;2023-07-13T03:56:34;7.33;;;2.77;;
64887;SDS011;51386;53.082;8.816;2023-07-13T03:59:01;3.40;;;2.40;;
64887;SDS011;51386;53.082;8.816;2023-07-13T04:01:28;6.67;;;3.73;;
64887;SDS011;51386;53.082;8.816;2023-07-13T04:03:55;9.20;;;3.00;;
64887;SDS011;51386;53.082;8.816;2023-07-13T04:06:23;5.03;;;2.87;;
64887;SDS011;51386;53.082;8.816;2023-07-13T04:08:54;7.80;;;3.00;;
64887;SDS011;51386;53.082;8.816;2023-07-13T04:11:26;6.77;;;2.67;;
64887;SDS011;51386;53.082;8.816;2023-07-13T04:13:55;8.17;;;2.50;;
64887;SDS011;51386;53.082;8.816;2023-07-13T04:16:22;6.60;;;2.80;;
64887;SDS011;51386;53.082;8.816;2023-07-13T04:18:51;5.53;;;2.87;;
64887;SDS011;51386;53.082;8.816;2023-07-13T04:21:25;5.57;;;2.70;;
64887;SDS011;51386;53.082;8.816;2023-07-13T04:23:54;5.40;;;2.50;;
64887;SDS011;51386;53.082;8.816;2023-07-13T04:26:21;6.37;;;2.40;;
64887;SDS011;51386;53.082;8.816;2023-07-13T04:28:50;5.53;;;2.57;;
64887;SDS011;51386;53.082;8.816;2023-07-13T04:31:18;5.60;;;2.60;;
64887;SDS011;51386;53.082;8.816;2023-07-13T04:33:45;6.77;;;2.50;;
64887;SDS011;51386;53.082;8.816;2023-07-13T04:36:14;7.23;;;3.10;;
64887;SDS011;51386;53.082;8.816;2023-07-13T04:38:42;6.40;;;2.93;;
64887;SDS011;51386;53.082;8.816;2023-07-13T04:41:09;7.53;;;2.63;;
64887;SDS011;51386;53.082;8.816;2023-07-13T04:43:36;7.40;;;3.23;;
64887;SDS011;51386;53.082;8.816;2023-07-13T04:46:05;10.20;;;3.13;;
64887;SDS011;51386;53.082;8.816;2023-07-13T04:48:36;7.37;;;2.97;;
64887;SDS011;51386;53.082;8.816;2023-07-13T04:51:04;6.70;;;2.93;;
64887;SDS011;51386;53.082;8.816;2023-07-13T04:53:32;8.10;;;2.93;;
64887;SDS011;51386;53.082;8.816;2023-07-13T04:56:00;8.03;;;2.83;;
64887;SDS011;51386;53.082;8.816;2023-07-13T04:58:28;7.07;;;2.90;;
64887;SDS011;51386;53.082;8.816;2023-07-13T05:00:59;4.70;;;2.30;;
64887;SDS011;51386;53.082;8.816;2023-07-13T05:03:28;5.07;;;2.60;;
64887;SDS011;51386;53.082;8.816;2023-07-13T05:05:56;6.60;;;2.40;;
64887;SDS011;51386;53.082;8.816;2023-07-13T05:08:26;7.90;;;2.47;;
64887;SDS011;51386;53.082;8.816;2023-07-13T05:10:53;7.00;;;2.83;;
64887;SDS011;51386;53.082;8.816;2023-07-13T05:13:20;9.03;;;2.90;;
64887;SDS011;51386;53.082;8.816;2023-07-13T05:15:55;7.07;;;2.87;;
64887;SDS011;51386;53.082;8.816;2023-07-13T05:18:23;6.70;;;3.27;;
64887;SDS011;51386;53.082;8.816;2023-07-13T05:20:59;8.27;;;2.90;;
64887;SDS011;51386;53.082;8.816;2023-07-13T05:23:29;8.57;;;3.20;;
64887;SDS011;51386;53.082;8.816;2023-07-13T05:25:57;6.20;;;3.00;;
64887;SDS011;51386;53.082;8.816;2023-07-13T05:28:24;7.60;;;2.90;;
64887;SDS011;51386;53.082;8.816;2023-07-13T05:30:52;8.47;;;2.97;;
64887;SDS011;51386;53.082;8.816;2023-07-13T05:33:21;8.67;;;3.97;;
64887;SDS011;51386;53.082;8.816;2023-07-13T05:35:48;7.50;;;3.40;;
64887;SDS011;51386;53.082;8.816;2023-07-13T05:38:17;5.03;;;2.53;;
64887;SDS011;51386;53.082;8.816;2023-07-13T05:40:44;9.20;;;3.57;;
64887;SDS011;51386;53.082;8.816;2023-07-13T05:43:12;7.00;;;3.10;;
64887;SDS011;51386;53.082;8.816;2023-07-13T05:45:40;10.83;;;3.40;;
64887;SDS011;51386;53.082;8.816;2023-07-13T05:48:08;8.83;;;3.17;;
64887;SDS011;51386;53.082;8.816;2023-07-13T05:50:35;12.83;;;4.20;;
64887;SDS011;51386;53.082;8.816;2023-07-13T05:53:02;12.13;;;3.53;;
64887;SDS011;51386;53.082;8.816;2023-07-13T05:55:30;6.70;;;3.20;;
64887;SDS011;51386;53.082;8.816;2023-07-13T05:57:58;7.10;;;2.70;;
64887;SDS011;51386;53.082;8.816;2023-07-13T06:00:26;8.03;;;3.17;;
64887;SDS011;51386;53.082;8.816;2023-07-13T06:02:54;10.00;;;3.87;;
64887;SDS011;51386;53.082;8.816;2023-07-13T06:05:23;8.50;;;2.90;;
64887;SDS011;51386;53.082;8.816;2023-07-13T06:07:50;7.60;;;3.20;;
64887;SDS011;51386;53.082;8.816;2023-07-13T06:10:17;11.20;;;3.70;;
64887;SDS011;51386;53.082;8.816;2023-07-13T06:12:45;6.00;;;3.47;;
64887;SDS011;51386;53.082;8.816;2023-07-13T06:15:13;5.17;;;3.03;;
64887;SDS011;51386;53.082;8.816;2023-07-13T06:17:43;5.87;;;3.20;;
64887;SDS011;51386;53.082;8.816;2023-07-13T06:20:10;6.77;;;3.10;;
64887;SDS011;51386;53.082;8.816;2023-07-13T06:22:37;7.73;;;3.33;;
64887;SDS011;51386;53.082;8.816;2023-07-13T06:25:04;6.93;;;3.50;;
64887;SDS011;51386;53.082;8.816;2023-07-13T06:27:32;8.50;;;3.40;;
64887;SDS011;51386;53.082;8.816;2023-07-13T06:30:01;9.77;;;3.00;;
64887;SDS011;51386;53.082;8.816;2023-07-13T06:32:28;9.97;;;4.00;;
64887;SDS011;51386;53.082;8.816;2023-07-13T06:34:55;8.07;;;3.37;;
64887;SDS011;51386;53.082;8.816;2023-07-13T06:37:22;7.97;;;3.17;;
64887;SDS011;51386;53.082;8.816;2023-07-13T06:39:49;9.80;;;3.97;;
64887;SDS011;51386;53.082;8.816;2023-07-13T06:42:16;8.40;;;3.67;;
64887;SDS011;51386;53.082;8.816;2023-07-13T06:44:43;9.63;;;3.47;;
64887;SDS011;51386;53.082;8.816;2023-07-13T06:47:12;7.97;;;3.27;;
64887;SDS011;51386;53.082;8.816;2023-07-13T06:49:39;9.13;;;4.10;;
64887;SDS011;51386;53.082;8.816;2023-07-13T06:52:06;11.10;;;3.90;;
64887;SDS011;51386;53.082;8.816;2023-07-13T06:54:33;6.80;;;3.47;;
64887;SDS011;51386;53.082;8.816;2023-07-13T06:57:01;10.20;;;4.07;;
64887;SDS011;51386;53.082;8.816;2023-07-13T06:59:28;7.43;;;3.13;;
64887;SDS011;51386;53.082;8.816;2023-07-13T07:01:55;7.23;;;3.20;;
64887;SDS011;51386;53.082;8.816;2023-07-13T07:04:23;5.17;;;2.83;;
64887;SDS011;51386;53.082;8.816;2023-07-13T07:06:50;9.90;;;3.73;;
64887;SDS011;51386;53.082;8.816;2023-07-13T07:09:17;6.77;;;3.20;;
64887;SDS011;51386;53.082;8.816;2023-07-13T07:11:44;7.63;;;3.40;;
64887;SDS011;51386;53.082;8.816;2023-07-13T07:14:27;8.30;;;3.53;;
64887;SDS011;51386;53.082;8.816;2023-07-13T07:16:55;6.63;;;2.87;;
64887;SDS011;51386;53.082;8.816;2023-07-13T07:19:23;8.40;;;3.40;;
64887;SDS011;51386;53.082;8.816;2023-07-13T07:21:50;7.13;;;3.47;;
64887;SDS011;51386;53.082;8.816;2023-07-13T07:24:17;8.43;;;3.27;;
64887;SDS011;51386;53.082;8.816;2023-07-13T07:26:44;10.60;;;3.37;;
64887;SDS011;51386;53.082;8.816;2023-07-13T07:29:14;11.23;;;3.30;;
64887;SDS011;51386;53.082;8.816;2023-07-13T07:31:44;8.00;;;3.13;;
64887;SDS011;51386;53.082;8.816;2023-07-13T07:34:14;5.47;;;3.33;;
64887;SDS011;51386;53.082;8.816;2023-07-13T07:36:42;7.20;;;3.43;;
64887;SDS011;51386;53.082;8.816;2023-07-13T07:39:12;6.53;;;3.03;;
64887;SDS011;51386;53.082;8.816;2023-07-13T07:41:40;7.00;;;3.47;;
64887;SDS011;51386;53.082;8.816;2023-07-13T07:44:09;9.07;;;3.10;;
64887;SDS011;51386;53.082;8.816;2023-07-13T07:46:39;4.43;;;2.70;;
64887;SDS011;51386;53.082;8.816;2023-07-13T07:49:07;9.57;;;3.43;;
64887;SDS011;51386;53.082;8.816;2023-07-13T07:51:34;9.50;;;3.37;;
64887;SDS011;51386;53.082;8.816;2023-07-13T07:54:02;7.13;;;3.83;;
64887;SDS011;51386;53.082;8.816;2023-07-13T07:56:30;7.87;;;4.10;;
64887;SDS011;51386;53.082;8.816;2023-07-13T07:59:01;8.77;;;4.20;;
64887;SDS011;51386;53.082;8.816;2023-07-13T08:01:31;11.93;;;4.50;;
64887;SDS011;51386;53.082;8.816;2023-07-13T08:04:03;8.97;;;5.00;;
64887;SDS011;51386;53.082;8.816;2023-07-13T08:06:36;6.33;;;3.47;;
64887;SDS011;51386;53.082;8.816;2023-07-13T08:09:07;8.13;;;3.40;;
64887;SDS011;51386;53.082;8.816;2023-07-13T08:11:34;7.07;;;3.13;;
64887;SDS011;51386;53.082;8.816;2023-07-13T08:14:05;4.57;;;2.83;;
64887;SDS011;51386;53.082;8.816;2023-07-13T08:16:32;7.00;;;3.07;;
64887;SDS011;51386;53.082;8.816;2023-07-13T08:18:59;6.77;;;3.27;;
64887;SDS011;51386;53.082;8.816;2023-07-13T08:21:27;4.90;;;3.10;;
64887;SDS011;51386;53.082;8.816;2023-07-13T08:23:55;8.00;;;3.10;;
64887;SDS011;51386;53.082;8.816;2023-07-13T08:26:27;8.13;;;3.13;;
64887;SDS011;51386;53.082;8.816;2023-07-13T08:28:54;6.30;;;3.10;;
64887;SDS011;51386;53.082;8.816;2023-07-13T08:31:21;7.20;;;3.03;;
64887;SDS011;51386;53.082;8.816;2023-07-13T08:33:52;5.03;;;3.43;;
64887;SDS011;51386;53.082;8.816;2023-07-13T08:36:22;8.57;;;3.60;;
64887;SDS011;51386;53.082;8.816;2023-07-13T08:38:49;7.57;;;2.90;;
64887;SDS011;51386;53.082;8.816;2023-07-13T08:41:17;9.27;;;3.73;;
64887;SDS011;51386;53.082;8.816;2023-07-13T08:43:50;8.53;;;3.80;;
64887;SDS011;51386;53.082;8.816;2023-07-13T08:46:26;6.87;;;3.17;;
64887;SDS011;51386;53.082;8.816;2023-07-13T08:49:02;5.33;;;3.33;;
64887;SDS011;51386;53.082;8.816;2023-07-13T08:51:34;4.93;;;2.80;;
64887;SDS011;51386;53.082;8.816;2023-07-13T08:54:12;4.23;;;2.80;;
64887;SDS011;51386;53.082;8.816;2023-07-13T08:56:48;4.50;;;3.13;;
64887;SDS011;51386;53.082;8.816;2023-07-13T08:59:21;3.57;;;2.33;;
64887;SDS011;51386;53.082;8.816;2023-07-13T09:04:53;5.83;;;2.87;;
64887;SDS011;51386;53.082;8.816;2023-07-13T09:07:34;5.87;;;2.83;;
64887;SDS011;51386;53.082;8.816;2023-07-13T09:10:23;3.33;;;2.50;;
64887;SDS011;51386;53.082;8.816;2023-07-13T09:13:01;6.37;;;2.73;;
64887;SDS011;51386;53.082;8.816;2023-07-13T09:15:48;5.17;;;2.73;;
64887;SDS011;51386;53.082;8.816;2023-07-13T09:18:19;4.75;;;2.88;;
64887;SDS011;51386;53.082;8.816;2023-07-13T09:20:56;8.10;;;3.00;;
64887;SDS011;51386;53.082;8.816;2023-07-13T09:23:29;5.90;;;2.83;;
64887;SDS011;51386;53.082;8.816;2023-07-13T09:26:00;6.40;;;3.17;;
64887;SDS011;51386;53.082;8.816;2023-07-13T09:28:33;5.47;;;2.80;;
64887;SDS011;51386;53.082;8.816;2023-07-13T09:31:13;7.22;;;3.33;;
64887;SDS011;51386;53.082;8.816;2023-07-13T09:33:46;4.20;;;3.08;;
64887;SDS011;51386;53.082;8.816;2023-07-13T09:36:16;4.80;;;3.03;;
64887;SDS011;51386;53.082;8.816;2023-07-13T09:38:48;4.15;;;2.92;;
64887;SDS011;51386;53.082;8.816;2023-07-13T09:41:23;5.00;;;2.88;;
64887;SDS011;51386;53.082;8.816;2023-07-13T09:44:08;4.07;;;2.70;;
64887;SDS011;51386;53.082;8.816;2023-07-13T09:46:44;6.50;;;2.40;;
64887;SDS011;51386;53.082;8.816;2023-07-13T09:49:14;5.53;;;2.63;;
64887;SDS011;51386;53.082;8.816;2023-07-13T09:51:41;3.58;;;2.60;;
64887;SDS011;51386;53.082;8.816;2023-07-13T09:54:24;5.30;;;2.88;;
64887;SDS011;51386;53.082;8.816;2023-07-13T09:56:55;9.02;;;3.10;;
64887;SDS011;51386;53.082;8.816;2023-07-13T09:59:28;4.18;;;2.63;;
64887;SDS011;51386;53.082;8.816;2023-07-13T10:02:08;3.60;;;2.10;;
64887;SDS011;51386;53.082;8.816;2023-07-13T10:04:55;3.90;;;2.42;;
64887;SDS011;51386;53.082;8.816;2023-07-13T10:07:29;5.07;;;3.30;;
64887;SDS011;51386;53.082;8.816;2023-07-13T10:09:59;3.03;;;2.25;;
64887;SDS011;51386;53.082;8.816;2023-07-13T10:12:28;3.83;;;2.47;;
64887;SDS011;51386;53.082;8.816;2023-07-13T10:15:02;3.10;;;2.43;;
64887;SDS011;51386;53.082;8.816;2023-07-13T10:17:51;3.93;;;2.40;;
64887;SDS011;51386;53.082;8.816;2023-07-13T10:20:22;4.40;;;2.37;;
64887;SDS011;51386;53.082;8.816;2023-07-13T10:22:51;2.83;;;2.43;;
64887;SDS011;51386;53.082;8.816;2023-07-13T10:25:25;4.63;;;2.97;;
64887;SDS011;51386;53.082;8.816;2023-07-13T10:28:00;5.03;;;2.10;;
64887;SDS011;51386;53.082;8.816;2023-07-13T10:30:39;4.20;;;2.37;;
64887;SDS011;51386;53.082;8.816;2023-07-13T10:33:13;4.37;;;2.20;;
64887;SDS011;51386;53.082;8.816;2023-07-13T10:35:42;4.40;;;3.07;;
64887;SDS011;51386;53.082;8.816;2023-07-13T10:38:13;3.53;;;2.57;;
64887;SDS011;51386;53.082;8.816;2023-07-13T10:40:48;4.73;;;2.33;;
64887;SDS011;51386;53.082;8.816;2023-07-13T10:43:25;6.20;;;4.10;;
64887;SDS011;51386;53.082;8.816;2023-07-13T10:45:55;4.33;;;2.53;;
64887;SDS011;51386;53.082;8.816;2023-07-13T10:48:24;6.07;;;1.83;;
64887;SDS011;51386;53.082;8.816;2023-07-13T10:50:53;2.73;;;2.10;;
64887;SDS011;51386;53.082;8.816;2023-07-13T10:53:28;4.53;;;2.20;;
64887;SDS011;51386;53.082;8.816;2023-07-13T10:56:02;4.50;;;2.80;;
64887;SDS011;51386;53.082;8.816;2023-07-13T10:58:38;3.73;;;2.40;;
64887;SDS011;51386;53.082;8.816;2023-07-13T11:01:08;2.97;;;2.13;;
64887;SDS011;51386;53.082;8.816;2023-07-13T11:03:47;4.13;;;2.20;;
64887;SDS011;51386;53.082;8.816;2023-07-13T11:06:29;2.53;;;2.00;;
64887;SDS011;51386;53.082;8.816;2023-07-13T11:09:17;4.93;;;2.27;;
64887;SDS011;51386;53.082;8.816;2023-07-13T11:11:58;3.97;;;1.97;;
64887;SDS011;51386;53.082;8.816;2023-07-13T11:14:28;4.80;;;2.80;;
64887;SDS011;51386;53.082;8.816;2023-07-13T11:20:18;6.67;;;2.60;;
64887;SDS011;51386;53.082;8.816;2023-07-13T11:25:55;2.13;;;1.63;;
64887;SDS011;51386;53.082;8.816;2023-07-13T11:28:31;3.37;;;1.90;;
64887;SDS011;51386;53.082;8.816;2023-07-13T11:31:31;3.60;;;1.90;;
64887;SDS011;51386;53.082;8.816;2023-07-13T11:34:01;2.83;;;2.00;;
64887;SDS011;51386;53.082;8.816;2023-07-13T11:36:31;4.30;;;2.37;;
64887;SDS011;51386;53.082;8.816;2023-07-13T11:39:17;3.80;;;2.37;;
64887;SDS011;51386;53.082;8.816;2023-07-13T11:41:50;2.93;;;2.17;;
64887;SDS011;51386;53.082;8.816;2023-07-13T11:44:23;5.00;;;2.10;;
64887;SDS011;51386;53.082;8.816;2023-07-13T11:46:57;2.70;;;1.63;;
64887;SDS011;51386;53.082;8.816;2023-07-13T11:49:41;1.63;;;1.50;;
64887;SDS011;51386;53.082;8.816;2023-07-13T11:52:12;1.60;;;1.37;;
64887;SDS011;51386;53.082;8.816;2023-07-13T11:54:46;2.50;;;1.63;;
64887;SDS011;51386;53.082;8.816;2023-07-13T11:57:20;2.10;;;1.13;;
64887;SDS011;51386;53.082;8.816;2023-07-13T11:59:53;1.93;;;1.33;;
64887;SDS011;51386;53.082;8.816;2023-07-13T12:02:24;1.80;;;1.20;;
64887;SDS011;51386;53.082;8.816;2023-07-13T12:05:00;1.20;;;1.10;;
64887;SDS011;51386;53.082;8.816;2023-07-13T12:07:41;2.40;;;1.00;;
64887;SDS011;51386;53.082;8.816;2023-07-13T12:10:24;2.30;;;1.43;;
64887;SDS011;51386;53.082;8.816;2023-07-13T12:13:05;1.73;;;1.63;;
64887;SDS011;51386;53.082;8.816;2023-07-13T12:15:36;2.40;;;2.10;;
64887;SDS011;51386;53.082;8.816;2023-07-13T12:18:11;1.83;;;1.73;;
64887;SDS011;51386;53.082;8.816;2023-07-13T12:20:41;2.03;;;1.53;;
64887;SDS011;51386;53.082;8.816;2023-07-13T12:23:14;2.07;;;1.43;;
64887;SDS011;51386;53.082;8.816;2023-07-13T12:25:51;2.47;;;1.73;;
64887;SDS011;51386;53.082;8.816;2023-07-13T12:28:19;1.97;;;1.50;;
64887;SDS011;51386;53.082;8.816;2023-07-13T12:30:49;2.73;;;1.93;;
64887;SDS011;51386;53.082;8.816;2023-07-13T12:33:27;1.83;;;1.27;;
64887;SDS011;51386;53.082;8.816;2023-07-13T12:35:56;1.30;;;1.20;;
64887;SDS011;51386;53.082;8.816;2023-07-13T12:38:27;2.97;;;2.43;;
64887;SDS011;51386;53.082;8.816;2023-07-13T12:40:57;3.57;;;1.77;;
64887;SDS011;51386;53.082;8.816;2023-07-13T12:43:28;2.60;;;1.87;;
64887;SDS011;51386;53.082;8.816;2023-07-13T12:46:04;1.77;;;1.20;;
64887;SDS011;51386;53.082;8.816;2023-07-13T12:48:43;1.60;;;1.50;;
64887;SDS011;51386;53.082;8.816;2023-07-13T12:51:27;2.07;;;1.60;;
64887;SDS011;51386;53.082;8.816;2023-07-13T12:53:58;1.67;;;1.27;;
64887;SDS011;51386;53.082;8.816;2023-07-13T12:56:39;1.87;;;1.60;;
64887;SDS011;51386;53.082;8.816;2023-07-13T12:59:08;1.83;;;1.73;;
64887;SDS011;51386;53.082;8.816;2023-07-13T13:01:46;1.80;;;1.60;;
64887;SDS011;51386;53.082;8.816;2023-07-13T13:04:16;1.93;;;1.73;;
64887;SDS011;51386;53.082;8.816;2023-07-13T13:06:48;2.33;;;1.83;;
64887;SDS011;51386;53.082;8.816;2023-07-13T13:09:28;1.43;;;1.10;;
64887;SDS011;51386;53.082;8.816;2023-07-13T13:11:55;1.70;;;1.30;;
64887;SDS011;51386;53.082;8.816;2023-07-13T13:14:22;3.37;;;2.53;;
64887;SDS011;51386;53.082;8.816;2023-07-13T13:16:50;1.17;;;1.07;;
64887;SDS011;51386;53.082;8.816;2023-07-13T13:19:20;1.60;;;1.50;;
64887;SDS011;51386;53.082;8.816;2023-07-13T13:21:50;2.07;;;1.83;;
64887;SDS011;51386;53.082;8.816;2023-07-13T13:24:22;1.70;;;1.60;;
64887;SDS011;51386;53.082;8.816;2023-07-13T13:26:54;1.70;;;1.40;;
64887;SDS011;51386;53.082;8.816;2023-07-13T13:29:25;3.60;;;1.60;;
64887;SDS011;51386;53.082;8.816;2023-07-13T13:31:52;1.73;;;1.63;;
64887;SDS011;51386;53.082;8.816;2023-07-13T13:34:22;2.13;;;1.60;;
64887;SDS011;51386;53.082;8.816;2023-07-13T13:36:50;3.20;;;1.53;;
64887;SDS011;51386;53.082;8.816;2023-07-13T13:39:25;1.40;;;1.30;;
64887;SDS011;51386;53.082;8.816;2023-07-13T13:42:01;2.60;;;1.47;;
64887;SDS011;51386;53.082;8.816;2023-07-13T13:44:29;1.50;;;1.40;;
64887;SDS011;51386;53.082;8.816;2023-07-13T13:46:56;4.37;;;2.97;;
64887;SDS011;51386;53.082;8.816;2023-07-13T13:49:24;2.63;;;1.90;;
64887;SDS011;51386;53.082;8.816;2023-07-13T13:51:53;8.50;;;4.80;;
64887;SDS011;51386;53.082;8.816;2023-07-13T13:54:22;6.67;;;3.90;;
64887;SDS011;51386;53.082;8.816;2023-07-13T13:56:51;2.40;;;1.60;;
64887;SDS011;51386;53.082;8.816;2023-07-13T13:59:20;2.23;;;1.27;;
64887;SDS011;51386;53.082;8.816;2023-07-13T14:01:47;2.43;;;1.57;;
64887;SDS011;51386;53.082;8.816;2023-07-13T14:04:19;2.20;;;1.63;;
64887;SDS011;51386;53.082;8.816;2023-07-13T14:06:48;1.80;;;1.47;;
64887;SDS011;51386;53.082;8.816;2023-07-13T14:09:17;1.37;;;1.27;;
64887;SDS011;51386;53.082;8.816;2023-07-13T14:11:46;3.40;;;1.80;;
64887;SDS011;51386;53.082;8.816;2023-07-13T14:14:17;1.90;;;1.80;;
64887;SDS011;51386;53.082;8.816;2023-07-13T14:16:50;4.53;;;1.70;;
64887;SDS011;51386;53.082;8.816;2023-07-13T14:19:20;1.70;;;1.60;;
64887;SDS011;51386;53.082;8.816;2023-07-13T14:21:48;2.30;;;1.43;;
64887;SDS011;51386;53.082;8.816;2023-07-13T14:24:19;2.73;;;1.57;;
64887;SDS011;51386;53.082;8.816;2023-07-13T14:26:46;2.40;;;2.03;;
64887;SDS011;51386;53.082;8.816;2023-07-13T14:29:15;2.10;;;1.90;;
64887;SDS011;51386;53.082;8.816;2023-07-13T14:31:51;2.97;;;1.60;;
64887;SDS011;51386;53.082;8.816;2023-07-13T14:34:18;3.00;;;1.80;;
64887;SDS011;51386;53.082;8.816;2023-07-13T14:36:47;3.90;;;2.00;;
64887;SDS011;51386;53.082;8.816;2023-07-13T14:39:19;2.30;;;1.80;;
64887;SDS011;51386;53.082;8.816;2023-07-13T14:41:49;2.33;;;1.47;;
64887;SDS011;51386;53.082;8.816;2023-07-13T14:44:19;4.20;;;2.07;;
64887;SDS011;51386;53.082;8.816;2023-07-13T14:46:50;3.83;;;2.10;;
64887;SDS011;51386;53.082;8.816;2023-07-13T14:49:21;2.00;;;1.70;;
64887;SDS011;51386;53.082;8.816;2023-07-13T14:51:55;3.57;;;1.90;;
64887;SDS011;51386;53.082;8.816;2023-07-13T14:54:25;2.40;;;1.87;;
64887;SDS011;51386;53.082;8.816;2023-07-13T14:56:57;4.77;;;2.30;;
64887;SDS011;51386;53.082;8.816;2023-07-13T14:59:25;4.40;;;2.30;;
64887;SDS011;51386;53.082;8.816;2023-07-13T15:01:53;2.57;;;2.30;;
64887;SDS011;51386;53.082;8.816;2023-07-13T15:04:21;2.27;;;1.93;;
64887;SDS011;51386;53.082;8.816;2023-07-13T15:06:52;2.50;;;2.07;;
64887;SDS011;51386;53.082;8.816;2023-07-13T15:09:22;2.33;;;2.10;;
64887;SDS011;51386;53.082;8.816;2023-07-13T15:11:52;2.63;;;2.30;;
64887;SDS011;51386;53.082;8.816;2023-07-13T15:14:20;2.40;;;1.90;;
64887;SDS011;51386;53.082;8.816;2023-07-13T15:16:48;3.30;;;1.63;;
64887;SDS011;51386;53.082;8.816;2023-07-13T15:19:21;3.43;;;1.63;;